createdAt,value
2022-10-17T00:01:30.672Z,9.00
2022-10-17T00:03:57.447Z,9.02
2022-10-17T00:06:24.147Z,9.07
2022-10-17T00:08:51.026Z,9.07
2022-10-17T00:11:21.000Z,8.93
2022-10-17T00:13:48.707Z,8.88
2022-10-17T00:16:16.535Z,8.86
2022-10-17T00:18:43.307Z,8.90
2022-10-17T00:21:17.976Z,8.80
2022-10-17T00:23:45.386Z,8.81
2022-10-17T00:26:12.235Z,8.82
2022-10-17T00:28:39.053Z,8.89
2022-10-17T00:31:07.070Z,8.93
2022-10-17T00:33:35.426Z,8.83
2022-10-17T00:36:04.278Z,8.94
2022-10-17T00:38:31.110Z,9.01
2022-10-17T00:40:57.829Z,8.89
2022-10-17T00:43:24.625Z,8.85
2022-10-17T00:45:51.276Z,8.86
2022-10-17T00:48:22.518Z,8.57
2022-10-17T00:50:50.555Z,8.71
2022-10-17T00:53:17.476Z,8.61
2022-10-17T00:55:49.489Z,8.72
2022-10-17T00:58:16.861Z,8.62
2022-10-17T01:00:44.096Z,8.68
2022-10-17T01:03:10.884Z,8.69
2022-10-17T01:05:38.609Z,8.68
2022-10-17T01:08:05.507Z,8.75
2022-10-17T01:10:53.485Z,8.68
2022-10-17T01:13:28.598Z,8.63
2022-10-17T01:16:17.243Z,8.61
2022-10-17T01:18:52.687Z,8.53
2022-10-17T01:21:32.077Z,8.47
2022-10-17T01:24:25.298Z,8.38
2022-10-17T01:27:30.043Z,8.56
2022-10-17T01:30:21.258Z,8.49
2022-10-17T01:32:54.925Z,8.56
2022-10-17T01:35:41.954Z,8.49
2022-10-17T01:38:11.686Z,8.45
2022-10-17T01:41:02.900Z,8.45
2022-10-17T01:43:47.487Z,8.41
2022-10-17T01:46:24.425Z,8.41
2022-10-17T01:48:51.348Z,8.33
2022-10-17T01:51:54.718Z,8.39
2022-10-17T01:54:24.846Z,8.46
2022-10-17T01:56:55.396Z,8.34
2022-10-17T01:59:29.513Z,8.27
2022-10-17T02:01:57.568Z,8.15
2022-10-17T02:04:25.445Z,8.20
2022-10-17T02:06:52.276Z,8.28
2022-10-17T02:09:24.337Z,8.21
2022-10-17T02:12:09.357Z,8.15
2022-10-17T02:14:54.238Z,8.24
2022-10-17T02:17:33.648Z,8.11
2022-10-17T02:20:35.727Z,8.14
2022-10-17T02:25:51.639Z,7.98
2022-10-17T02:28:32.048Z,8.07
2022-10-17T02:31:02.980Z,8.20
2022-10-17T02:33:34.697Z,8.14
2022-10-17T02:36:05.970Z,8.06
2022-10-17T02:38:33.398Z,8.04
2022-10-17T02:41:00.744Z,8.19
2022-10-17T02:43:28.447Z,8.02
2022-10-17T02:45:55.737Z,8.07
2022-10-17T02:48:27.206Z,8.26
2022-10-17T02:51:41.357Z,8.31
2022-10-17T02:54:26.501Z,8.40
2022-10-17T02:57:01.416Z,8.24
2022-10-17T02:59:29.632Z,8.31
2022-10-17T03:01:56.636Z,8.18
2022-10-17T03:04:23.306Z,8.20
2022-10-17T03:06:49.987Z,8.20
2022-10-17T03:09:16.725Z,7.89
2022-10-17T03:11:43.342Z,7.84
2022-10-17T03:14:10.157Z,7.87
2022-10-17T03:16:36.858Z,7.85
2022-10-17T03:19:03.526Z,7.99
2022-10-17T03:21:30.344Z,7.94
2022-10-17T03:23:57.068Z,8.08
2022-10-17T03:26:23.817Z,8.09
2022-10-17T03:28:53.501Z,8.10
2022-10-17T03:31:22.076Z,8.07
2022-10-17T03:33:48.838Z,8.21
2022-10-17T03:36:17.439Z,8.19
2022-10-17T03:38:44.677Z,7.91
2022-10-17T03:41:11.760Z,7.65
2022-10-17T03:43:39.685Z,7.55
2022-10-17T03:46:07.374Z,7.72
2022-10-17T03:48:34.323Z,7.61
2022-10-17T03:51:06.349Z,7.70
2022-10-17T03:53:33.304Z,7.73
2022-10-17T03:56:15.755Z,7.73
2022-10-17T03:58:42.748Z,7.85
2022-10-17T04:01:11.905Z,7.71
2022-10-17T04:03:39.157Z,7.70
2022-10-17T04:06:06.797Z,7.73
2022-10-17T04:08:33.997Z,7.62
2022-10-17T04:11:01.967Z,7.74
2022-10-17T04:13:28.979Z,7.56
2022-10-17T04:16:00.418Z,7.28
2022-10-17T04:18:27.493Z,7.25
2022-10-17T04:20:54.233Z,7.17
2022-10-17T04:23:20.875Z,7.34
2022-10-17T04:25:47.444Z,7.22
2022-10-17T04:28:14.078Z,7.44
2022-10-17T04:30:43.596Z,7.36
2022-10-17T04:33:12.121Z,7.40
2022-10-17T04:35:39.048Z,7.48
2022-10-17T04:38:05.668Z,7.34
2022-10-17T04:40:32.259Z,7.55
2022-10-17T04:42:58.890Z,7.44
2022-10-17T04:45:25.786Z,7.38
2022-10-17T04:47:52.368Z,7.27
2022-10-17T04:50:18.913Z,7.10
2022-10-17T04:52:45.505Z,7.12
2022-10-17T04:55:12.107Z,7.28
2022-10-17T04:57:38.774Z,7.26
2022-10-17T05:00:06.002Z,7.27
2022-10-17T05:02:32.679Z,7.40
2022-10-17T05:04:59.287Z,7.20
2022-10-17T05:07:25.963Z,7.24
2022-10-17T05:09:52.692Z,7.16
2022-10-17T05:12:19.367Z,7.28
2022-10-17T05:14:46.114Z,7.12
2022-10-17T05:17:12.734Z,7.00
2022-10-17T05:19:39.426Z,6.80
2022-10-17T05:22:06.187Z,6.87
2022-10-17T05:24:32.914Z,6.83
2022-10-17T05:26:59.696Z,6.95
2022-10-17T05:29:26.396Z,7.03
2022-10-17T05:31:53.289Z,6.72
2022-10-17T05:34:20.023Z,6.63
2022-10-17T05:36:46.756Z,6.87
2022-10-17T05:39:15.004Z,6.76
2022-10-17T05:41:41.736Z,7.00
2022-10-17T05:44:08.476Z,6.86
2022-10-17T05:46:35.183Z,6.89
2022-10-17T05:49:05.289Z,7.05
2022-10-17T05:51:34.726Z,6.99
2022-10-17T05:54:01.633Z,6.93
2022-10-17T05:56:28.328Z,6.96
2022-10-17T05:58:58.634Z,6.94
2022-10-17T06:01:27.652Z,7.03
2022-10-17T06:03:54.416Z,6.89
2022-10-17T06:06:21.558Z,6.98
2022-10-17T06:08:48.313Z,6.80
2022-10-17T06:11:15.056Z,6.96
2022-10-17T06:13:42.112Z,7.07
2022-10-17T06:16:08.816Z,7.29
2022-10-17T06:18:35.693Z,7.33
2022-10-17T06:21:08.166Z,7.32
2022-10-17T06:23:34.894Z,7.21
2022-10-17T06:26:03.043Z,7.24
2022-10-17T06:28:30.327Z,7.14
2022-10-17T06:30:57.075Z,7.37
2022-10-17T06:33:23.974Z,7.54
2022-10-17T06:35:54.557Z,7.76
2022-10-17T06:38:21.884Z,7.69
2022-10-17T06:40:48.674Z,7.96
2022-10-17T06:43:15.546Z,8.41
2022-10-17T06:45:42.348Z,8.87
2022-10-17T06:48:09.264Z,9.01
2022-10-17T06:50:36.012Z,9.09
2022-10-17T06:53:02.916Z,9.00
2022-10-17T06:55:31.516Z,8.81
2022-10-17T06:57:58.534Z,8.89
2022-10-17T07:00:26.859Z,8.97
2022-10-17T07:02:53.662Z,9.22
2022-10-17T07:05:20.464Z,9.43
2022-10-17T07:07:49.701Z,9.66
2022-10-17T07:10:18.516Z,9.74
2022-10-17T07:12:45.983Z,9.77
2022-10-17T07:15:13.281Z,9.98
2022-10-17T07:17:40.093Z,10.56
2022-10-17T07:20:07.351Z,10.76
2022-10-17T07:22:34.114Z,10.64
2022-10-17T07:25:00.793Z,10.97
2022-10-17T07:27:27.965Z,10.62
2022-10-17T07:29:54.986Z,10.54
2022-10-17T07:32:21.766Z,10.86
2022-10-17T07:34:48.496Z,11.27
2022-10-17T07:37:15.186Z,11.10
2022-10-17T07:39:41.888Z,11.15
2022-10-17T07:42:08.639Z,11.30
2022-10-17T07:44:35.962Z,11.69
2022-10-17T07:47:02.732Z,12.04
2022-10-17T07:49:29.636Z,12.33
2022-10-17T07:51:56.397Z,12.37
2022-10-17T07:54:23.167Z,11.99
2022-10-17T07:56:50.844Z,12.35
2022-10-17T07:59:20.648Z,13.02
2022-10-17T08:01:47.362Z,13.01
2022-10-17T08:04:14.176Z,12.89
2022-10-17T08:06:40.844Z,13.13
2022-10-17T08:09:07.640Z,13.76
2022-10-17T08:11:36.045Z,13.81
2022-10-17T08:14:02.926Z,14.07
2022-10-17T08:16:29.771Z,13.83
2022-10-17T08:18:56.577Z,14.28
2022-10-17T08:21:23.356Z,14.89
2022-10-17T08:23:50.077Z,14.95
2022-10-17T08:26:17.431Z,14.73
2022-10-17T08:28:44.478Z,15.20
2022-10-17T08:31:18.253Z,15.44
2022-10-17T08:33:45.419Z,15.72
2022-10-17T08:36:17.943Z,16.33
2022-10-17T08:38:47.995Z,15.54
2022-10-17T08:41:36.821Z,16.48
2022-10-17T08:44:25.826Z,16.64
2022-10-17T08:46:57.207Z,16.41
2022-10-17T08:49:34.728Z,15.87
2022-10-17T08:52:12.456Z,15.81
2022-10-17T08:54:46.112Z,15.96
2022-10-17T08:57:17.071Z,15.56
2022-10-17T08:59:45.908Z,15.97
2022-10-17T09:02:41.685Z,16.22
2022-10-17T09:05:26.892Z,16.58
2022-10-17T09:08:05.332Z,17.08
2022-10-17T09:10:58.192Z,17.04
2022-10-17T09:16:44.714Z,17.74
2022-10-17T09:19:21.184Z,17.13
2022-10-17T09:22:01.885Z,17.74
2022-10-17T09:24:38.912Z,17.64
2022-10-17T09:27:09.883Z,18.05
2022-10-17T09:29:41.500Z,17.70
2022-10-17T09:32:22.054Z,17.76
2022-10-17T09:34:48.712Z,18.27
2022-10-17T09:37:16.723Z,17.93
2022-10-17T09:39:44.113Z,17.64
2022-10-17T09:42:14.833Z,17.70
2022-10-17T09:45:11.872Z,18.59
2022-10-17T09:47:41.574Z,18.57
2022-10-17T09:50:32.616Z,17.97
2022-10-17T09:53:09.847Z,18.45
2022-10-17T09:55:48.627Z,19.05
2022-10-17T09:58:15.560Z,19.25
2022-10-17T10:00:45.100Z,19.61
2022-10-17T10:03:21.908Z,20.24
2022-10-17T10:06:35.397Z,20.32
2022-10-17T10:09:06.218Z,20.42
2022-10-17T10:11:47.462Z,20.31
2022-10-17T10:14:22.469Z,20.13
2022-10-17T10:16:50.129Z,20.37
2022-10-17T10:19:32.770Z,20.32
2022-10-17T10:22:14.996Z,20.91
2022-10-17T10:24:42.022Z,20.72
2022-10-17T10:27:16.597Z,20.75
2022-10-17T10:29:49.429Z,21.16
2022-10-17T10:32:28.130Z,21.19
2022-10-17T10:35:09.239Z,21.13
2022-10-17T10:37:41.697Z,21.36
2022-10-17T10:40:20.737Z,21.65
2022-10-17T10:43:04.003Z,21.88
2022-10-17T10:45:53.586Z,21.91
2022-10-17T10:48:32.510Z,21.73
2022-10-17T10:51:21.737Z,21.66
2022-10-17T10:54:03.808Z,22.24
2022-10-17T10:56:35.337Z,21.89
2022-10-17T10:59:13.562Z,22.19
2022-10-17T11:01:54.218Z,22.48
2022-10-17T11:04:28.908Z,22.66
2022-10-17T11:07:01.729Z,21.86
2022-10-17T11:09:55.090Z,21.48
2022-10-17T11:12:25.867Z,21.97
2022-10-17T11:15:01.899Z,22.20
2022-10-17T11:17:47.580Z,22.82
2022-10-17T11:20:28.011Z,22.99
2022-10-17T11:22:59.253Z,23.14
2022-10-17T11:25:36.031Z,22.92
2022-10-17T11:28:05.405Z,23.00
2022-10-17T11:31:03.324Z,22.45
2022-10-17T11:33:47.497Z,22.71
2022-10-17T11:36:15.353Z,23.21
2022-10-17T11:38:50.117Z,23.21
2022-10-17T11:41:27.667Z,23.49
2022-10-17T11:44:00.918Z,23.48
2022-10-17T11:46:28.805Z,23.20
2022-10-17T11:49:20.373Z,23.44
2022-10-17T11:52:02.916Z,23.12
2022-10-17T11:54:46.229Z,23.48
2022-10-17T11:57:50.111Z,24.07
2022-10-17T12:00:40.858Z,23.68
2022-10-17T12:03:46.399Z,23.91
2022-10-17T12:06:31.858Z,24.32
2022-10-17T12:09:07.761Z,24.45
2022-10-17T12:11:41.020Z,24.68
2022-10-17T12:14:33.949Z,24.73
2022-10-17T12:17:01.529Z,24.63
2022-10-17T12:19:32.673Z,24.86
2022-10-17T12:22:26.152Z,24.88
2022-10-17T12:25:03.970Z,24.97
2022-10-17T12:27:45.947Z,24.95
2022-10-17T12:30:12.724Z,25.00
2022-10-17T12:33:07.441Z,24.84
2022-10-17T12:35:36.860Z,25.20
2022-10-17T12:38:32.957Z,25.32
2022-10-17T12:41:00.469Z,25.45
2022-10-17T12:43:30.348Z,25.21
2022-10-17T12:46:01.119Z,25.10
2022-10-17T12:48:33.997Z,25.11
2022-10-17T12:53:58.953Z,25.45
2022-10-17T12:56:34.842Z,25.38
2022-10-17T12:59:01.769Z,25.56
2022-10-17T13:01:33.645Z,25.29
2022-10-17T13:04:06.679Z,25.19
2022-10-17T13:06:40.445Z,25.38
2022-10-17T13:09:28.481Z,25.16
2022-10-17T13:11:57.610Z,25.00
2022-10-17T13:14:25.389Z,24.90
2022-10-17T13:16:57.037Z,25.22
2022-10-17T13:19:26.100Z,25.48
2022-10-17T13:22:15.797Z,25.38
2022-10-17T13:24:42.541Z,25.39
2022-10-17T13:27:30.184Z,25.32
2022-10-17T13:29:58.818Z,25.30
2022-10-17T13:32:27.921Z,24.97
2022-10-17T13:35:42.040Z,24.56
2022-10-17T13:38:13.262Z,24.55
2022-10-17T13:40:50.086Z,24.49
2022-10-17T13:43:19.493Z,24.54
2022-10-17T13:45:51.949Z,24.44
2022-10-17T13:48:24.449Z,24.45
2022-10-17T13:51:02.669Z,23.83
2022-10-17T13:53:40.119Z,23.85
2022-10-17T13:56:29.871Z,23.66
2022-10-17T13:59:03.632Z,23.79
2022-10-17T14:01:30.870Z,23.55
2022-10-17T14:04:08.883Z,23.51
2022-10-17T14:06:47.999Z,23.67
2022-10-17T14:09:22.548Z,23.05
2022-10-17T14:12:19.221Z,22.80
2022-10-17T14:15:09.894Z,22.66
2022-10-17T14:17:38.671Z,22.48
2022-10-17T14:20:34.086Z,22.30
2022-10-17T14:23:21.103Z,22.26
2022-10-17T14:25:40.785Z,22.15
2022-10-17T14:28:09.339Z,21.96
2022-10-17T14:30:55.862Z,21.41
2022-10-17T14:33:26.940Z,21.52
2022-10-17T14:35:56.118Z,21.15
2022-10-17T14:38:23.058Z,20.88
2022-10-17T14:41:15.715Z,21.00
2022-10-17T14:43:56.418Z,20.96
2022-10-17T14:46:23.642Z,20.58
2022-10-17T14:49:02.480Z,20.46
2022-10-17T14:51:35.982Z,20.24
2022-10-17T14:54:29.868Z,19.69
2022-10-17T14:56:56.732Z,19.68
2022-10-17T15:02:12.396Z,19.33
2022-10-17T15:04:39.158Z,19.55
2022-10-17T15:07:05.919Z,19.36
2022-10-17T15:09:32.917Z,19.36
2022-10-17T15:12:03.292Z,19.49
2022-10-17T15:14:30.002Z,19.56
2022-10-17T15:16:56.720Z,19.36
2022-10-17T15:19:23.417Z,19.11
2022-10-17T15:21:50.195Z,19.00
2022-10-17T15:24:16.949Z,18.77
2022-10-17T15:26:43.851Z,18.77
2022-10-17T15:29:16.139Z,18.77
2022-10-17T15:31:42.866Z,18.80
2022-10-17T15:34:09.590Z,18.70
2022-10-17T15:36:40.293Z,18.60
2022-10-17T15:39:07.070Z,18.67
2022-10-17T15:41:33.869Z,18.56
2022-10-17T15:44:00.790Z,18.46
2022-10-17T15:46:29.831Z,18.33
2022-10-17T15:48:57.526Z,18.33
2022-10-17T15:51:24.336Z,18.16
2022-10-17T15:53:51.040Z,18.21
2022-10-17T15:56:25.779Z,18.19
2022-10-17T15:58:52.778Z,17.95
2022-10-17T16:01:22.670Z,17.75
2022-10-17T16:03:50.706Z,17.65
2022-10-17T16:06:18.910Z,17.53
2022-10-17T16:08:49.070Z,17.50
2022-10-17T16:11:37.441Z,17.36
2022-10-17T16:14:06.476Z,17.30
2022-10-17T16:16:33.796Z,17.32
2022-10-17T16:19:01.506Z,17.45
2022-10-17T16:24:03.177Z,17.41
2022-10-17T16:26:29.883Z,17.29
2022-10-17T16:28:58.196Z,17.08
2022-10-17T16:31:29.389Z,17.04
2022-10-17T16:33:57.249Z,16.86
2022-10-17T16:36:23.961Z,16.76
2022-10-17T16:38:51.657Z,16.57
2022-10-17T16:41:25.187Z,16.54
2022-10-17T16:43:53.729Z,16.82
2022-10-17T16:46:21.328Z,16.49
2022-10-17T16:48:48.410Z,16.43
2022-10-17T16:51:16.358Z,16.52
2022-10-17T16:53:46.210Z,16.50
2022-10-17T16:56:15.421Z,16.46
2022-10-17T16:58:43.059Z,16.30
2022-10-17T17:01:15.279Z,16.07
2022-10-17T17:03:43.641Z,16.06
2022-10-17T17:06:14.070Z,16.23
2022-10-17T17:08:42.026Z,16.18
2022-10-17T17:11:10.169Z,16.17
2022-10-17T17:13:37.366Z,16.16
2022-10-17T17:16:06.989Z,16.11
2022-10-17T17:18:34.342Z,15.88
2022-10-17T17:21:02.652Z,15.84
2022-10-17T17:23:30.196Z,15.92
2022-10-17T17:26:01.268Z,15.82
2022-10-17T17:28:28.483Z,15.69
2022-10-17T17:30:55.759Z,15.58
2022-10-17T17:33:23.838Z,15.54
2022-10-17T17:36:01.219Z,15.49
2022-10-17T17:38:32.369Z,15.21
2022-10-17T17:40:59.421Z,15.11
2022-10-17T17:43:26.091Z,15.09
2022-10-17T17:45:52.809Z,15.18
2022-10-17T17:48:20.340Z,15.30
2022-10-17T17:50:47.159Z,15.21
2022-10-17T17:53:15.868Z,15.06
2022-10-17T17:55:42.762Z,14.89
2022-10-17T17:58:09.669Z,14.97
2022-10-17T18:00:36.696Z,14.80
2022-10-17T18:03:03.560Z,14.81
2022-10-17T18:05:30.777Z,14.70
2022-10-17T18:07:57.547Z,14.58
2022-10-17T18:10:24.559Z,14.64
2022-10-17T18:12:51.252Z,14.77
2022-10-17T18:15:17.991Z,14.67
2022-10-17T18:17:44.718Z,14.58
2022-10-17T18:20:11.948Z,14.44
2022-10-17T18:22:38.831Z,14.29
2022-10-17T18:25:06.748Z,14.18
2022-10-17T18:27:33.444Z,14.23
2022-10-17T18:30:00.193Z,14.11
2022-10-17T18:32:27.210Z,13.99
2022-10-17T18:34:54.107Z,13.97
2022-10-17T18:37:20.771Z,13.91
2022-10-17T18:39:51.593Z,13.93
2022-10-17T18:42:18.608Z,13.74
2022-10-17T18:44:45.310Z,13.60
2022-10-17T18:47:11.989Z,13.64
2022-10-17T18:49:38.778Z,13.52
2022-10-17T18:52:05.461Z,13.38
2022-10-17T18:54:33.591Z,13.37
2022-10-17T18:57:00.799Z,13.24
2022-10-17T18:59:27.572Z,13.13
2022-10-17T19:01:54.385Z,13.07
2022-10-17T19:04:21.319Z,13.13
2022-10-17T19:06:48.049Z,13.04
2022-10-17T19:09:15.580Z,13.00
2022-10-17T19:11:42.943Z,12.81
2022-10-17T19:14:14.195Z,12.63
2022-10-17T19:16:46.156Z,12.72
2022-10-17T19:19:12.732Z,12.74
2022-10-17T19:21:39.464Z,12.73
2022-10-17T19:24:08.336Z,12.60
2022-10-17T19:26:36.427Z,12.54
2022-10-17T19:29:04.323Z,12.40
2022-10-17T19:31:31.998Z,12.41
2022-10-17T19:33:59.162Z,12.45
2022-10-17T19:36:32.243Z,12.41
2022-10-17T19:39:04.927Z,12.36
2022-10-17T19:41:32.272Z,12.32
2022-10-17T19:44:00.290Z,12.23
2022-10-17T19:46:28.063Z,12.16
2022-10-17T19:48:54.942Z,12.01
2022-10-17T19:51:26.478Z,11.98
2022-10-17T19:53:55.687Z,11.99
2022-10-17T19:56:23.823Z,11.99
2022-10-17T19:58:51.075Z,11.95
2022-10-17T20:01:22.842Z,11.83
2022-10-17T20:03:49.738Z,11.99
2022-10-17T20:06:17.150Z,11.94
2022-10-17T20:08:44.060Z,11.93
2022-10-17T20:11:16.446Z,11.93
2022-10-17T20:13:43.592Z,11.73
2022-10-17T20:16:14.791Z,11.66
2022-10-17T20:18:41.462Z,11.61
2022-10-17T20:21:11.950Z,11.56
2022-10-17T20:23:39.439Z,11.43
2022-10-17T20:26:25.485Z,11.45
2022-10-17T20:28:57.813Z,11.52
2022-10-17T20:31:24.596Z,11.25
2022-10-17T20:33:58.616Z,11.35
2022-10-17T20:36:25.540Z,11.37
2022-10-17T20:38:56.298Z,11.32
2022-10-17T20:41:23.500Z,11.31
2022-10-17T20:43:51.828Z,11.36
2022-10-17T20:46:35.102Z,11.32
2022-10-17T20:49:02.751Z,11.27
2022-10-17T20:51:29.410Z,11.17
2022-10-17T20:56:29.056Z,11.17
2022-10-17T20:58:57.833Z,10.89
2022-10-17T21:01:25.342Z,10.98
2022-10-17T21:03:52.639Z,10.99
2022-10-17T21:06:19.560Z,10.98
2022-10-17T21:08:47.418Z,10.79
2022-10-17T21:11:19.490Z,10.90
2022-10-17T21:13:47.095Z,10.85
2022-10-17T21:16:16.333Z,10.90
2022-10-17T21:18:43.498Z,10.84
2022-10-17T21:21:20.894Z,10.55
2022-10-17T21:23:49.225Z,10.65
2022-10-17T21:26:17.321Z,10.70
2022-10-17T21:28:45.228Z,10.46
2022-10-17T21:31:11.827Z,10.52
2022-10-17T21:33:39.178Z,10.61
2022-10-17T21:36:06.304Z,10.48
2022-10-17T21:38:36.327Z,10.55
2022-10-17T21:41:03.661Z,10.43
2022-10-17T21:43:30.526Z,10.58
2022-10-17T21:45:57.122Z,10.55
2022-10-17T21:48:23.711Z,10.36
2022-10-17T21:50:56.706Z,10.36
2022-10-17T21:53:23.273Z,10.22
2022-10-17T21:55:49.838Z,10.23
2022-10-17T21:58:16.505Z,10.32
2022-10-17T22:00:43.045Z,10.34
2022-10-17T22:03:12.735Z,10.35
2022-10-17T22:05:39.335Z,10.44
2022-10-17T22:08:05.984Z,10.21
2022-10-17T22:10:32.600Z,10.12
2022-10-17T22:12:59.255Z,10.15
2022-10-17T22:15:25.867Z,10.30
2022-10-17T22:17:52.426Z,10.18
2022-10-17T22:20:18.976Z,10.17
2022-10-17T22:22:45.577Z,10.22
2022-10-17T22:25:12.136Z,9.89
2022-10-17T22:27:38.741Z,9.92
2022-10-17T22:30:05.860Z,10.12
2022-10-17T22:32:32.495Z,9.97
2022-10-17T22:34:59.114Z,9.95
2022-10-17T22:37:25.677Z,9.85
2022-10-17T22:39:52.212Z,9.84
2022-10-17T22:42:18.837Z,9.81
2022-10-17T22:44:46.559Z,9.80
2022-10-17T22:47:13.141Z,9.80
2022-10-17T22:49:39.736Z,9.80
2022-10-17T22:52:06.340Z,9.79
2022-10-17T22:54:32.909Z,9.79
2022-10-17T22:56:59.589Z,9.57
2022-10-17T22:59:26.141Z,9.63
2022-10-17T23:01:52.814Z,9.67
2022-10-17T23:04:19.583Z,9.58
2022-10-17T23:06:46.329Z,9.58
2022-10-17T23:09:13.529Z,9.51
2022-10-17T23:11:40.209Z,9.50
2022-10-17T23:14:06.916Z,9.52
2022-10-17T23:16:33.841Z,9.33
2022-10-17T23:19:00.871Z,9.31
2022-10-17T23:21:27.578Z,9.29
2022-10-17T23:23:54.220Z,9.33
2022-10-17T23:26:20.969Z,9.44
2022-10-17T23:28:47.640Z,9.42
2022-10-17T23:31:17.137Z,9.35
2022-10-17T23:33:45.267Z,9.35
2022-10-17T23:36:16.944Z,9.31
2022-10-17T23:38:45.058Z,9.21
2022-10-17T23:41:12.098Z,9.16
2022-10-17T23:43:38.698Z,9.26
2022-10-17T23:46:05.997Z,9.19
2022-10-17T23:48:32.780Z,9.19
2022-10-17T23:50:59.632Z,9.12
2022-10-17T23:53:26.731Z,8.95
2022-10-17T23:55:53.328Z,9.06
2022-10-17T23:58:20.117Z,9.12
